createdAt,value
2022-08-03T00:03:35.029Z,101248.34
2022-08-03T00:08:40.215Z,101246.75
2022-08-03T00:13:43.688Z,101231.72
2022-08-03T00:18:45.598Z,101237.56
2022-08-03T00:23:51.446Z,101236.88
2022-08-03T00:28:55.930Z,101236.31
2022-08-03T00:34:03.127Z,101219.47
2022-08-03T00:39:05.961Z,101223.25
2022-08-03T00:49:11.498Z,101218.50
2022-08-03T00:54:14.320Z,101219.22
2022-08-03T00:59:20.634Z,101210.06
2022-08-03T01:04:23.205Z,101212.63
2022-08-03T01:09:37.683Z,101205.97
2022-08-03T01:14:46.207Z,101207.72
2022-08-03T01:19:54.534Z,101209.00
2022-08-03T01:25:03.195Z,101204.13
2022-08-03T01:30:08.356Z,101203.50
2022-08-03T01:35:14.421Z,101197.56
2022-08-03T01:40:17.888Z,101190.44
2022-08-03T01:45:22.833Z,101192.31
2022-08-03T01:50:28.229Z,101192.22
2022-08-03T01:55:32.922Z,101193.22
2022-08-03T02:00:38.750Z,101184.34
2022-08-03T02:05:42.003Z,101192.44
2022-08-03T02:10:46.073Z,101194.34
2022-08-03T02:15:49.958Z,101192.63
2022-08-03T02:20:52.575Z,101183.13
2022-08-03T02:25:59.932Z,101190.31
2022-08-03T02:31:11.969Z,101189.44
2022-08-03T02:36:16.197Z,101185.03
2022-08-03T02:41:23.153Z,101186.03
2022-08-03T02:46:32.433Z,101183.44
2022-08-03T02:51:36.924Z,101183.13
2022-08-03T02:56:40.383Z,101188.47
2022-08-03T03:01:45.074Z,101197.63
2022-08-03T03:06:47.935Z,101198.59
2022-08-03T03:11:52.344Z,101199.53
2022-08-03T03:16:57.625Z,101193.13
2022-08-03T03:22:02.361Z,101202.69
2022-08-03T03:27:05.546Z,101187.19
2022-08-03T03:32:09.392Z,101199.50
2022-08-03T03:37:11.501Z,101197.59
2022-08-03T03:42:14.056Z,101199.34
2022-08-03T03:47:17.981Z,101200.22
2022-08-03T03:52:35.120Z,101194.59
2022-08-03T03:57:37.224Z,101185.66
2022-08-03T04:02:40.834Z,101185.56
2022-08-03T04:07:52.143Z,101191.66
2022-08-03T04:12:56.458Z,101189.78
2022-08-03T04:18:01.710Z,101186.31
2022-08-03T04:23:05.430Z,101190.91
2022-08-03T04:28:31.386Z,101198.22
2022-08-03T04:33:38.787Z,101197.22
2022-08-03T04:38:53.049Z,101200.41
2022-08-03T04:43:57.675Z,101203.84
2022-08-03T04:49:01.497Z,101202.22
2022-08-03T04:54:03.480Z,101214.59
2022-08-03T04:59:05.153Z,101210.72
2022-08-03T05:04:08.253Z,101214.56
2022-08-03T05:09:09.979Z,101218.25
2022-08-03T05:14:11.757Z,101213.94
2022-08-03T05:19:14.843Z,101216.06
2022-08-03T05:24:17.181Z,101214.84
2022-08-03T05:29:19.067Z,101212.03
2022-08-03T05:34:22.597Z,101212.75
2022-08-03T05:39:24.689Z,101222.50
2022-08-03T05:44:26.872Z,101221.38
2022-08-03T05:49:30.393Z,101215.69
2022-08-03T05:54:56.170Z,101230.19
2022-08-03T05:59:58.347Z,101222.31
2022-08-03T06:05:02.471Z,101222.44
2022-08-03T06:10:36.897Z,101232.84
2022-08-03T06:15:28.101Z,101240.22
2022-08-03T06:20:31.648Z,101234.88
2022-08-03T06:25:33.899Z,101227.53
2022-08-03T06:30:36.389Z,101229.47
2022-08-03T06:35:42.455Z,101227.28
2022-08-03T06:40:46.808Z,101228.50
2022-08-03T06:45:53.027Z,101232.44
2022-08-03T06:50:56.435Z,101225.75
2022-08-03T06:55:58.739Z,101222.69
2022-08-03T07:01:01.100Z,101222.34
2022-08-03T07:06:04.640Z,101212.59
2022-08-03T07:11:06.897Z,101214.94
2022-08-03T07:16:08.944Z,101215.09
2022-08-03T07:21:12.439Z,101218.41
2022-08-03T07:26:14.918Z,101224.44
2022-08-03T07:31:17.093Z,101218.38
2022-08-03T07:36:20.809Z,101221.19
2022-08-03T07:41:22.846Z,101228.91
2022-08-03T07:46:24.888Z,101227.00
2022-08-03T07:51:30.396Z,101223.09
2022-08-03T07:56:32.611Z,101217.97
2022-08-03T08:01:34.782Z,101216.03
2022-08-03T08:06:38.260Z,101221.75
2022-08-03T08:11:41.592Z,101225.44
2022-08-03T08:16:43.588Z,101222.72
2022-08-03T08:21:53.813Z,101228.13
2022-08-03T08:27:05.362Z,101220.78
2022-08-03T08:32:07.413Z,101217.66
2022-08-03T08:37:10.936Z,101226.09
2022-08-03T08:42:13.178Z,101219.00
2022-08-03T08:47:15.597Z,101220.88
2022-08-03T08:52:24.969Z,101221.47
2022-08-03T08:57:42.459Z,101223.72
2022-08-03T09:02:46.773Z,101215.59
2022-08-03T09:07:50.772Z,101213.78
2022-08-03T09:12:53.442Z,101203.16
2022-08-03T09:17:58.709Z,101210.72
2022-08-03T09:23:14.022Z,101196.13
2022-08-03T09:28:59.894Z,101208.16
2022-08-03T09:34:01.646Z,101196.03
2022-08-03T09:39:07.263Z,101201.41
2022-08-03T09:44:09.368Z,101193.16
2022-08-03T09:49:27.309Z,101183.13
2022-08-03T09:54:31.843Z,101198.59
2022-08-03T09:59:34.704Z,101191.28
2022-08-03T10:04:47.624Z,101189.34
2022-08-03T10:10:30.576Z,101179.47
2022-08-03T10:16:22.592Z,101179.47
2022-08-03T10:20:49.884Z,101179.81
2022-08-03T10:25:58.839Z,101174.66
2022-08-03T10:31:02.580Z,101171.75
2022-08-03T10:36:07.238Z,101166.00
2022-08-03T10:41:11.347Z,101155.72
2022-08-03T10:46:16.070Z,101154.22
2022-08-03T10:51:20.366Z,101146.69
2022-08-03T10:56:49.700Z,101128.63
2022-08-03T11:01:58.766Z,101133.28
2022-08-03T11:07:21.134Z,101124.81
2022-08-03T11:12:30.457Z,101131.91
2022-08-03T11:17:46.321Z,101132.03
2022-08-03T11:22:56.982Z,101121.66
2022-08-03T11:28:27.676Z,101114.88
2022-08-03T11:33:31.174Z,101117.44
2022-08-03T11:38:33.307Z,101115.41
2022-08-03T11:43:47.106Z,101112.31
2022-08-03T11:48:51.393Z,101097.41
2022-08-03T11:53:55.261Z,101097.06
2022-08-03T11:59:17.952Z,101100.00
2022-08-03T12:04:21.562Z,101094.69
2022-08-03T12:09:23.615Z,101093.47
2022-08-03T12:14:48.576Z,101095.91
2022-08-03T12:19:50.511Z,101083.38
2022-08-03T12:24:52.514Z,101086.03
2022-08-03T12:29:59.028Z,101080.50
2022-08-03T12:35:02.295Z,101075.88
2022-08-03T12:40:10.071Z,101070.50
2022-08-03T12:45:21.172Z,101058.78
2022-08-03T12:50:31.351Z,101046.38
2022-08-03T12:55:56.513Z,101051.53
2022-08-03T13:00:58.331Z,101054.63
2022-08-03T13:06:00.336Z,101054.59
2022-08-03T13:11:20.920Z,101052.66
2022-08-03T13:16:24.717Z,101045.97
2022-08-03T13:21:26.783Z,101051.47
2022-08-03T13:26:28.859Z,101035.91
2022-08-03T13:31:32.485Z,101036.81
2022-08-03T13:36:59.220Z,101035.13
2022-08-03T13:41:57.357Z,101031.16
2022-08-03T13:47:00.469Z,101038.28
2022-08-03T13:52:02.770Z,101020.00
2022-08-03T13:58:04.730Z,101017.03
2022-08-03T14:02:28.949Z,101018.31
2022-08-03T14:07:31.192Z,101013.41
2022-08-03T14:12:33.230Z,101010.97
2022-08-03T14:17:42.364Z,101014.50
2022-08-03T14:22:52.276Z,101006.53
2022-08-03T14:27:54.361Z,101006.59
2022-08-03T14:33:00.703Z,100995.28
2022-08-03T14:38:03.645Z,101008.16
2022-08-03T14:43:05.804Z,100994.88
2022-08-03T14:50:29.532Z,100993.38
2022-08-03T14:53:32.429Z,100979.13
2022-08-03T14:58:34.494Z,100992.78
2022-08-03T15:03:37.739Z,100977.97
2022-08-03T15:08:39.887Z,100975.00
2022-08-03T15:13:41.699Z,100969.56
2022-08-03T15:18:45.253Z,100974.66
2022-08-03T15:23:47.384Z,100962.22
2022-08-03T15:28:49.705Z,100964.13
2022-08-03T15:33:53.483Z,100963.56
2022-08-03T15:38:55.796Z,100969.66
2022-08-03T15:43:57.919Z,100964.97
2022-08-03T15:49:01.456Z,100957.25
2022-08-03T15:54:03.252Z,100954.84
2022-08-03T15:59:12.199Z,100959.81
2022-08-03T16:04:17.029Z,100953.03
2022-08-03T16:09:24.262Z,100958.66
2022-08-03T16:14:51.831Z,100947.94
2022-08-03T16:19:56.597Z,100956.00
2022-08-03T16:25:00.099Z,100939.75
2022-08-03T16:30:02.141Z,100937.84
2022-08-03T16:35:06.478Z,100947.47
2022-08-03T16:40:19.347Z,100946.38
2022-08-03T16:45:22.262Z,100950.31
2022-08-03T16:50:25.823Z,100938.44
2022-08-03T16:55:43.216Z,100942.88
2022-08-03T17:00:51.009Z,100938.78
2022-08-03T17:05:54.466Z,100946.69
2022-08-03T17:11:01.822Z,100947.41
2022-08-03T17:16:05.714Z,100950.25
2022-08-03T17:21:12.036Z,100951.28
2022-08-03T17:26:21.164Z,100959.53
2022-08-03T17:31:31.725Z,100960.75
2022-08-03T17:37:02.659Z,100961.59
2022-08-03T17:41:59.254Z,100956.66
2022-08-03T17:52:31.302Z,100964.91
2022-08-03T17:58:01.448Z,100964.41
2022-08-03T18:03:15.370Z,100958.34
2022-08-03T18:08:24.801Z,100960.38
2022-08-03T18:13:30.835Z,100965.44
2022-08-03T18:18:36.913Z,100961.63
2022-08-03T18:23:42.898Z,100967.22
2022-08-03T18:28:47.670Z,100967.19
2022-08-03T18:34:32.534Z,100965.28
2022-08-03T18:39:19.656Z,100976.00
2022-08-03T18:44:53.390Z,100968.13
2022-08-03T18:49:56.033Z,100963.97
2022-08-03T18:55:13.977Z,100965.81
2022-08-03T19:00:42.442Z,100962.94
2022-08-03T19:06:02.678Z,100977.16
2022-08-03T19:11:17.763Z,100975.16
2022-08-03T19:16:27.586Z,100979.91
2022-08-03T19:21:30.867Z,100980.78
2022-08-03T19:26:36.052Z,100989.13
2022-08-03T19:31:39.477Z,100995.47
2022-08-03T19:37:03.635Z,100987.28
2022-08-03T19:42:23.209Z,100990.59
2022-08-03T19:47:36.312Z,100993.22
2022-08-03T19:52:40.261Z,100987.16
2022-08-03T19:57:49.254Z,100993.03
2022-08-03T20:02:51.248Z,100981.22
2022-08-03T20:07:53.248Z,100983.88
2022-08-03T20:13:00.019Z,100984.41
2022-08-03T20:18:01.928Z,100977.53
2022-08-03T20:23:07.256Z,100973.13
2022-08-03T20:28:13.921Z,100979.81
2022-08-03T20:33:48.770Z,100973.25
2022-08-03T20:38:53.148Z,100973.50
2022-08-03T20:43:59.453Z,100978.59
2022-08-03T20:49:03.946Z,100972.19
2022-08-03T20:59:36.908Z,100978.44
2022-08-03T21:04:50.224Z,100988.22
2022-08-03T21:09:57.061Z,100983.28
2022-08-03T21:13:07.723Z,100976.44
2022-08-03T21:15:04.689Z,100993.06
2022-08-03T21:20:09.133Z,100989.44
2022-08-03T21:25:15.017Z,100985.91
2022-08-03T21:30:20.556Z,100990.28
2022-08-03T21:35:23.914Z,100993.81
2022-08-03T21:40:25.714Z,100985.25
2022-08-03T21:45:29.379Z,100990.44
2022-08-03T21:50:35.916Z,100974.59
2022-08-03T21:55:38.908Z,100971.63
2022-08-03T22:00:43.180Z,100985.03
2022-08-03T22:05:45.581Z,100984.16
2022-08-03T22:10:50.780Z,100989.16
2022-08-03T22:15:54.419Z,100993.88
2022-08-03T22:20:57.534Z,100995.09
2022-08-03T22:26:03.700Z,101003.53
2022-08-03T22:31:31.025Z,101000.06
2022-08-03T22:36:30.764Z,101007.72
2022-08-03T22:41:33.038Z,101005.66
2022-08-03T22:46:38.009Z,101007.69
2022-08-03T22:51:40.831Z,101012.94
2022-08-03T22:56:46.719Z,101001.03
2022-08-03T23:01:52.639Z,101002.16
2022-08-03T23:06:57.463Z,101010.22
2022-08-03T23:12:01.404Z,101009.41
2022-08-03T23:17:05.336Z,101005.47
2022-08-03T23:22:08.170Z,100998.72
2022-08-03T23:27:31.635Z,101002.50
2022-08-03T23:32:35.997Z,101002.34
2022-08-03T23:38:04.760Z,101003.94
2022-08-03T23:43:02.458Z,101003.78
2022-08-03T23:48:07.810Z,101006.09
2022-08-03T23:53:18.518Z,101005.97
2022-08-03T23:58:37.298Z,101004.50
